CheckWX is a tool to help pilots better visualize weather data.  It is not intended as a substitute for an official pre-flight weather briefing.

09:22:13 UTC

KRWF TAF
Redwood Falls Municipal Airport
Redwood Falls, Minnesota, USA
KRWF 180522Z 1806/1906 32010G16KT P6SM SCT015 TEMPO 1806/1808 BKN030 FM180800 31012KT P6SM BKN030 FM181700 31010KT P6SM BKN020 FM182200 32013KT P6SM BKN050 FM190000 32008KT P6SM SKC

Feb-18@
06:00 UTC

Feb-18 @ 06:00 UTC

Feb-18@
08:00 UTC

Feb-18 @ 08:00 UTC

KRWF 180522Z 1806/1906 32010G16KT P6SM SCT015

Expired

Wind
  • 320° at 10 KTS
  • {Gusting to 16 KTS
Cloud Levels
  • Scattered at 1,500' AGL

Feb-18@
06:00 UTC

Feb-18 @ 06:00 UTC

Feb-18@
08:00 UTC

Feb-18 @ 08:00 UTC

TEMPO 1806/1808 BKN030

Expired

Cloud Levels
  • Broken at 3,000' AGL

Feb-18@
08:00 UTC

Feb-18 @ 08:00 UTC

Feb-18@
17:00 UTC

Feb-18 @ 17:00 UTC

FM180800 31012KT P6SM BKN030

From

From Standard forecast or significant change

Wind
  • 310° at 12 KTS
Cloud Levels
  • Broken at 3,000' AGL

Feb-18@
17:00 UTC

Feb-18 @ 17:00 UTC

Feb-18@
22:00 UTC

Feb-18 @ 22:00 UTC

FM181700 31010KT P6SM BKN020

From

From Standard forecast or significant change

Wind
  • 310° at 10 KTS
Cloud Levels
  • Broken at 2,000' AGL

Feb-18@
22:00 UTC

Feb-18 @ 22:00 UTC

Feb-19@
00:00 UTC

Feb-19 @ 00:00 UTC

FM182200 32013KT P6SM BKN050

From

From Standard forecast or significant change

Wind
  • 320° at 13 KTS
Cloud Levels
  • Broken at 5,000' AGL

Feb-19@
00:00 UTC

Feb-19 @ 00:00 UTC

Feb-19@
06:00 UTC

Feb-19 @ 06:00 UTC

FM190000 32008KT P6SM SKC

From

From Standard forecast or significant change

Wind
  • 320° at 8 KTS
Cloud Levels
  • Clear skies